sensor_id;sensor_type;location;lat;lon;timestamp;temperature;humidity
47516;DHT22;33249;51.990;5.840;2023-11-21T00:00:42;7.60;99.90
47516;DHT22;33249;51.990;5.840;2023-11-21T00:03:08;7.60;99.90
47516;DHT22;33249;51.990;5.840;2023-11-21T00:05:38;7.60;99.90
47516;DHT22;33249;51.990;5.840;2023-11-21T00:08:04;7.60;99.90
47516;DHT22;33249;51.990;5.840;2023-11-21T00:10:31;7.50;99.90
47516;DHT22;33249;51.990;5.840;2023-11-21T00:12:57;7.50;99.90
47516;DHT22;33249;51.990;5.840;2023-11-21T00:15:23;7.50;99.90
47516;DHT22;33249;51.990;5.840;2023-11-21T00:17:49;7.40;99.90
47516;DHT22;33249;51.990;5.840;2023-11-21T00:20:15;7.50;99.90
47516;DHT22;33249;51.990;5.840;2023-11-21T00:22:41;7.50;99.90
47516;DHT22;33249;51.990;5.840;2023-11-21T00:25:08;7.40;99.90
47516;DHT22;33249;51.990;5.840;2023-11-21T00:27:35;7.40;99.90
47516;DHT22;33249;51.990;5.840;2023-11-21T00:30:03;7.40;99.90
47516;DHT22;33249;51.990;5.840;2023-11-21T00:32:30;7.40;99.90
47516;DHT22;33249;51.990;5.840;2023-11-21T00:34:57;7.40;99.90
47516;DHT22;33249;51.990;5.840;2023-11-21T00:37:25;7.40;99.90
47516;DHT22;33249;51.990;5.840;2023-11-21T00:39:51;7.30;99.90
47516;DHT22;33249;51.990;5.840;2023-11-21T00:42:17;7.30;99.90
47516;DHT22;33249;51.990;5.840;2023-11-21T00:44:44;7.20;99.90
47516;DHT22;33249;51.990;5.840;2023-11-21T00:47:11;7.10;99.90
47516;DHT22;33249;51.990;5.840;2023-11-21T00:49:39;7.20;99.90
47516;DHT22;33249;51.990;5.840;2023-11-21T00:52:06;7.20;99.90
47516;DHT22;33249;51.990;5.840;2023-11-21T00:54:32;7.20;99.90
47516;DHT22;33249;51.990;5.840;2023-11-21T00:56:59;7.20;99.90
47516;DHT22;33249;51.990;5.840;2023-11-21T00:59:25;7.20;99.90
47516;DHT22;33249;51.990;5.840;2023-11-21T01:01:51;7.20;99.90
47516;DHT22;33249;51.990;5.840;2023-11-21T01:04:18;7.20;99.90
47516;DHT22;33249;51.990;5.840;2023-11-21T01:06:44;7.20;99.90
47516;DHT22;33249;51.990;5.840;2023-11-21T01:09:11;7.30;99.90
47516;DHT22;33249;51.990;5.840;2023-11-21T01:11:38;7.30;99.90
47516;DHT22;33249;51.990;5.840;2023-11-21T01:14:04;7.30;99.90
47516;DHT22;33249;51.990;5.840;2023-11-21T01:16:31;7.30;99.90
47516;DHT22;33249;51.990;5.840;2023-11-21T01:18:59;7.40;99.90
47516;DHT22;33249;51.990;5.840;2023-11-21T01:21:25;7.40;99.90
47516;DHT22;33249;51.990;5.840;2023-11-21T01:23:51;7.40;99.90
47516;DHT22;33249;51.990;5.840;2023-11-21T01:26:17;7.40;99.90
47516;DHT22;33249;51.990;5.840;2023-11-21T01:28:44;7.40;99.90
47516;DHT22;33249;51.990;5.840;2023-11-21T01:31:10;7.40;99.90
47516;DHT22;33249;51.990;5.840;2023-11-21T01:33:36;7.50;99.90
47516;DHT22;33249;51.990;5.840;2023-11-21T01:36:02;7.50;99.90
47516;DHT22;33249;51.990;5.840;2023-11-21T01:38:28;7.60;99.90
47516;DHT22;33249;51.990;5.840;2023-11-21T01:40:54;7.60;99.90
47516;DHT22;33249;51.990;5.840;2023-11-21T01:43:20;7.60;99.90
47516;DHT22;33249;51.990;5.840;2023-11-21T01:45:47;7.60;99.90
47516;DHT22;33249;51.990;5.840;2023-11-21T01:48:14;7.60;99.90
47516;DHT22;33249;51.990;5.840;2023-11-21T01:50:42;7.60;99.90
47516;DHT22;33249;51.990;5.840;2023-11-21T01:53:12;7.60;99.90
47516;DHT22;33249;51.990;5.840;2023-11-21T01:55:40;7.60;99.90
47516;DHT22;33249;51.990;5.840;2023-11-21T01:58:08;7.60;99.90
47516;DHT22;33249;51.990;5.840;2023-11-21T02:00:35;7.60;99.90
47516;DHT22;33249;51.990;5.840;2023-11-21T02:03:01;7.60;99.90
47516;DHT22;33249;51.990;5.840;2023-11-21T02:05:28;7.60;99.90
47516;DHT22;33249;51.990;5.840;2023-11-21T02:07:55;7.60;99.90
47516;DHT22;33249;51.990;5.840;2023-11-21T02:10:22;7.60;99.90
47516;DHT22;33249;51.990;5.840;2023-11-21T02:12:49;7.60;99.90
47516;DHT22;33249;51.990;5.840;2023-11-21T02:15:19;7.50;99.90
47516;DHT22;33249;51.990;5.840;2023-11-21T02:17:50;7.50;99.90
47516;DHT22;33249;51.990;5.840;2023-11-21T02:20:18;7.50;99.90
47516;DHT22;33249;51.990;5.840;2023-11-21T02:22:55;7.50;99.90
47516;DHT22;33249;51.990;5.840;2023-11-21T02:25:26;7.50;99.90
47516;DHT22;33249;51.990;5.840;2023-11-21T02:27:54;7.50;99.90
47516;DHT22;33249;51.990;5.840;2023-11-21T02:30:21;7.50;99.90
47516;DHT22;33249;51.990;5.840;2023-11-21T02:32:49;7.50;99.90
47516;DHT22;33249;51.990;5.840;2023-11-21T02:35:15;7.50;99.90
47516;DHT22;33249;51.990;5.840;2023-11-21T02:37:44;7.40;99.90
47516;DHT22;33249;51.990;5.840;2023-11-21T02:40:10;7.40;99.90
47516;DHT22;33249;51.990;5.840;2023-11-21T02:42:39;7.40;99.90
47516;DHT22;33249;51.990;5.840;2023-11-21T02:45:07;7.40;99.90
47516;DHT22;33249;51.990;5.840;2023-11-21T02:47:34;7.40;99.90
47516;DHT22;33249;51.990;5.840;2023-11-21T02:50:00;7.50;99.90
47516;DHT22;33249;51.990;5.840;2023-11-21T02:52:26;7.50;99.90
47516;DHT22;33249;51.990;5.840;2023-11-21T02:54:53;7.50;99.90
47516;DHT22;33249;51.990;5.840;2023-11-21T02:57:19;7.40;99.90
47516;DHT22;33249;51.990;5.840;2023-11-21T02:59:46;7.50;99.90
47516;DHT22;33249;51.990;5.840;2023-11-21T03:02:12;7.50;99.90
47516;DHT22;33249;51.990;5.840;2023-11-21T03:04:38;7.50;99.90
47516;DHT22;33249;51.990;5.840;2023-11-21T03:07:05;7.50;99.90
47516;DHT22;33249;51.990;5.840;2023-11-21T03:09:31;7.40;99.90
47516;DHT22;33249;51.990;5.840;2023-11-21T03:11:57;7.40;99.90
47516;DHT22;33249;51.990;5.840;2023-11-21T03:14:23;7.40;99.90
47516;DHT22;33249;51.990;5.840;2023-11-21T03:16:50;7.40;99.90
47516;DHT22;33249;51.990;5.840;2023-11-21T03:19:16;7.40;99.90
47516;DHT22;33249;51.990;5.840;2023-11-21T03:21:42;7.40;99.90
47516;DHT22;33249;51.990;5.840;2023-11-21T03:24:09;7.40;99.90
47516;DHT22;33249;51.990;5.840;2023-11-21T03:26:35;7.40;99.90
47516;DHT22;33249;51.990;5.840;2023-11-21T03:29:01;7.40;99.90
47516;DHT22;33249;51.990;5.840;2023-11-21T03:31:28;7.40;99.90
47516;DHT22;33249;51.990;5.840;2023-11-21T03:33:54;7.40;99.90
47516;DHT22;33249;51.990;5.840;2023-11-21T03:36:20;7.40;99.90
47516;DHT22;33249;51.990;5.840;2023-11-21T03:38:48;7.50;99.90
47516;DHT22;33249;51.990;5.840;2023-11-21T03:41:14;7.40;99.90
47516;DHT22;33249;51.990;5.840;2023-11-21T03:43:40;7.40;99.90
47516;DHT22;33249;51.990;5.840;2023-11-21T03:46:06;7.40;99.90
47516;DHT22;33249;51.990;5.840;2023-11-21T03:48:33;7.50;99.90
47516;DHT22;33249;51.990;5.840;2023-11-21T03:50:59;7.50;99.90
47516;DHT22;33249;51.990;5.840;2023-11-21T03:53:25;7.50;99.90
47516;DHT22;33249;51.990;5.840;2023-11-21T03:55:51;7.50;99.90
47516;DHT22;33249;51.990;5.840;2023-11-21T03:58:17;7.50;99.90
47516;DHT22;33249;51.990;5.840;2023-11-21T04:00:43;7.60;99.90
47516;DHT22;33249;51.990;5.840;2023-11-21T04:03:09;7.60;99.90
47516;DHT22;33249;51.990;5.840;2023-11-21T04:05:35;7.60;99.90
47516;DHT22;33249;51.990;5.840;2023-11-21T04:08:02;7.60;99.90
47516;DHT22;33249;51.990;5.840;2023-11-21T04:10:28;7.60;99.90
47516;DHT22;33249;51.990;5.840;2023-11-21T04:12:54;7.50;99.90
47516;DHT22;33249;51.990;5.840;2023-11-21T04:15:20;7.60;99.90
47516;DHT22;33249;51.990;5.840;2023-11-21T04:17:46;7.60;99.90
47516;DHT22;33249;51.990;5.840;2023-11-21T04:20:13;7.60;99.90
47516;DHT22;33249;51.990;5.840;2023-11-21T04:22:44;7.60;99.90
47516;DHT22;33249;51.990;5.840;2023-11-21T04:25:11;7.60;99.90
47516;DHT22;33249;51.990;5.840;2023-11-21T04:27:42;7.50;99.90
47516;DHT22;33249;51.990;5.840;2023-11-21T04:30:11;7.60;99.90
47516;DHT22;33249;51.990;5.840;2023-11-21T04:32:38;7.50;99.90
47516;DHT22;33249;51.990;5.840;2023-11-21T04:35:05;7.60;99.90
47516;DHT22;33249;51.990;5.840;2023-11-21T04:37:32;7.60;99.90
47516;DHT22;33249;51.990;5.840;2023-11-21T04:39:58;7.60;99.90
47516;DHT22;33249;51.990;5.840;2023-11-21T04:42:24;7.60;99.90
47516;DHT22;33249;51.990;5.840;2023-11-21T04:44:50;7.60;99.90
47516;DHT22;33249;51.990;5.840;2023-11-21T04:47:18;7.60;99.90
47516;DHT22;33249;51.990;5.840;2023-11-21T04:49:46;7.50;99.90
47516;DHT22;33249;51.990;5.840;2023-11-21T04:52:15;7.50;99.90
47516;DHT22;33249;51.990;5.840;2023-11-21T04:54:41;7.50;99.90
47516;DHT22;33249;51.990;5.840;2023-11-21T04:57:07;7.50;99.90
47516;DHT22;33249;51.990;5.840;2023-11-21T04:59:34;7.50;99.90
47516;DHT22;33249;51.990;5.840;2023-11-21T05:02:00;7.50;99.90
47516;DHT22;33249;51.990;5.840;2023-11-21T05:04:26;7.50;99.90
47516;DHT22;33249;51.990;5.840;2023-11-21T05:06:53;7.60;99.90
47516;DHT22;33249;51.990;5.840;2023-11-21T05:09:19;7.50;99.90
47516;DHT22;33249;51.990;5.840;2023-11-21T05:11:45;7.50;99.90
47516;DHT22;33249;51.990;5.840;2023-11-21T05:14:11;7.50;99.90
47516;DHT22;33249;51.990;5.840;2023-11-21T05:16:37;7.50;99.90
47516;DHT22;33249;51.990;5.840;2023-11-21T05:19:03;7.50;99.90
47516;DHT22;33249;51.990;5.840;2023-11-21T05:21:31;7.50;99.90
47516;DHT22;33249;51.990;5.840;2023-11-21T05:23:58;7.60;99.90
47516;DHT22;33249;51.990;5.840;2023-11-21T05:26:24;7.50;99.90
47516;DHT22;33249;51.990;5.840;2023-11-21T05:28:50;7.50;99.90
47516;DHT22;33249;51.990;5.840;2023-11-21T05:31:16;7.60;99.90
47516;DHT22;33249;51.990;5.840;2023-11-21T05:33:42;7.60;99.90
47516;DHT22;33249;51.990;5.840;2023-11-21T05:36:09;7.60;99.90
47516;DHT22;33249;51.990;5.840;2023-11-21T05:38:36;7.60;99.90
47516;DHT22;33249;51.990;5.840;2023-11-21T05:41:02;7.60;99.90
47516;DHT22;33249;51.990;5.840;2023-11-21T05:43:30;7.60;99.90
47516;DHT22;33249;51.990;5.840;2023-11-21T05:45:56;7.60;99.90
47516;DHT22;33249;51.990;5.840;2023-11-21T05:48:22;7.60;99.90
47516;DHT22;33249;51.990;5.840;2023-11-21T05:50:49;7.60;99.90
47516;DHT22;33249;51.990;5.840;2023-11-21T05:53:15;7.60;99.90
47516;DHT22;33249;51.990;5.840;2023-11-21T05:55:42;7.70;99.90
47516;DHT22;33249;51.990;5.840;2023-11-21T05:58:08;7.70;99.90
47516;DHT22;33249;51.990;5.840;2023-11-21T06:00:35;7.70;99.90
47516;DHT22;33249;51.990;5.840;2023-11-21T06:03:01;7.60;99.90
47516;DHT22;33249;51.990;5.840;2023-11-21T06:05:28;7.60;99.90
47516;DHT22;33249;51.990;5.840;2023-11-21T06:07:55;7.60;99.90
47516;DHT22;33249;51.990;5.840;2023-11-21T06:10:25;7.60;99.90
47516;DHT22;33249;51.990;5.840;2023-11-21T06:12:51;7.60;99.90
47516;DHT22;33249;51.990;5.840;2023-11-21T06:15:18;7.60;99.90
47516;DHT22;33249;51.990;5.840;2023-11-21T06:17:49;7.60;99.90
47516;DHT22;33249;51.990;5.840;2023-11-21T06:20:18;7.70;99.90
47516;DHT22;33249;51.990;5.840;2023-11-21T06:22:51;7.60;99.90
47516;DHT22;33249;51.990;5.840;2023-11-21T06:25:17;7.70;99.90
47516;DHT22;33249;51.990;5.840;2023-11-21T06:27:45;7.70;99.90
47516;DHT22;33249;51.990;5.840;2023-11-21T06:30:12;7.70;99.90
47516;DHT22;33249;51.990;5.840;2023-11-21T06:32:39;7.70;99.90
47516;DHT22;33249;51.990;5.840;2023-11-21T06:35:07;7.70;99.90
47516;DHT22;33249;51.990;5.840;2023-11-21T06:37:33;7.80;99.90
47516;DHT22;33249;51.990;5.840;2023-11-21T06:40:00;7.70;99.90
47516;DHT22;33249;51.990;5.840;2023-11-21T06:42:27;7.70;99.90
47516;DHT22;33249;51.990;5.840;2023-11-21T06:44:53;7.80;99.90
47516;DHT22;33249;51.990;5.840;2023-11-21T06:47:20;7.80;99.90
47516;DHT22;33249;51.990;5.840;2023-11-21T06:49:46;7.80;99.90
47516;DHT22;33249;51.990;5.840;2023-11-21T06:52:15;7.80;99.90
47516;DHT22;33249;51.990;5.840;2023-11-21T06:54:41;7.90;99.90
47516;DHT22;33249;51.990;5.840;2023-11-21T06:57:08;7.80;99.90
47516;DHT22;33249;51.990;5.840;2023-11-21T06:59:34;7.80;99.90
47516;DHT22;33249;51.990;5.840;2023-11-21T07:02:00;7.80;99.90
47516;DHT22;33249;51.990;5.840;2023-11-21T07:04:26;7.80;99.90
47516;DHT22;33249;51.990;5.840;2023-11-21T07:06:55;7.80;99.90
47516;DHT22;33249;51.990;5.840;2023-11-21T07:09:22;7.80;99.90
47516;DHT22;33249;51.990;5.840;2023-11-21T07:11:48;7.80;99.90
47516;DHT22;33249;51.990;5.840;2023-11-21T07:14:16;7.80;99.90
47516;DHT22;33249;51.990;5.840;2023-11-21T07:16:43;7.80;99.90
47516;DHT22;33249;51.990;5.840;2023-11-21T07:19:09;7.80;99.90
47516;DHT22;33249;51.990;5.840;2023-11-21T07:21:35;7.80;99.90
47516;DHT22;33249;51.990;5.840;2023-11-21T07:24:02;7.80;99.90
47516;DHT22;33249;51.990;5.840;2023-11-21T07:26:30;7.80;99.90
47516;DHT22;33249;51.990;5.840;2023-11-21T07:28:56;7.80;99.90
47516;DHT22;33249;51.990;5.840;2023-11-21T07:31:23;7.90;99.90
47516;DHT22;33249;51.990;5.840;2023-11-21T07:33:50;7.90;99.90
47516;DHT22;33249;51.990;5.840;2023-11-21T07:36:17;7.90;99.90
47516;DHT22;33249;51.990;5.840;2023-11-21T07:38:49;7.90;99.90
47516;DHT22;33249;51.990;5.840;2023-11-21T07:41:16;7.90;99.90
47516;DHT22;33249;51.990;5.840;2023-11-21T07:43:44;7.90;99.90
47516;DHT22;33249;51.990;5.840;2023-11-21T07:46:11;7.90;99.90
47516;DHT22;33249;51.990;5.840;2023-11-21T07:48:39;8.00;99.90
47516;DHT22;33249;51.990;5.840;2023-11-21T07:51:06;8.00;99.90
47516;DHT22;33249;51.990;5.840;2023-11-21T07:53:35;8.00;99.90
47516;DHT22;33249;51.990;5.840;2023-11-21T07:56:05;8.00;99.90
47516;DHT22;33249;51.990;5.840;2023-11-21T07:58:32;8.00;99.90
47516;DHT22;33249;51.990;5.840;2023-11-21T08:01:02;8.00;99.90
47516;DHT22;33249;51.990;5.840;2023-11-21T08:03:28;8.10;99.90
47516;DHT22;33249;51.990;5.840;2023-11-21T08:06:00;8.10;99.90
47516;DHT22;33249;51.990;5.840;2023-11-21T08:08:29;8.10;99.90
47516;DHT22;33249;51.990;5.840;2023-11-21T08:10:55;8.10;99.90
47516;DHT22;33249;51.990;5.840;2023-11-21T08:13:25;8.20;99.90
47516;DHT22;33249;51.990;5.840;2023-11-21T08:15:55;8.10;99.90
47516;DHT22;33249;51.990;5.840;2023-11-21T08:18:28;8.10;99.90
47516;DHT22;33249;51.990;5.840;2023-11-21T08:20:55;8.20;99.90
47516;DHT22;33249;51.990;5.840;2023-11-21T08:23:22;8.20;99.90
47516;DHT22;33249;51.990;5.840;2023-11-21T08:25:54;8.20;99.90
47516;DHT22;33249;51.990;5.840;2023-11-21T08:28:21;8.20;99.90
47516;DHT22;33249;51.990;5.840;2023-11-21T08:30:52;8.30;99.90
47516;DHT22;33249;51.990;5.840;2023-11-21T08:33:18;8.30;99.90
47516;DHT22;33249;51.990;5.840;2023-11-21T08:35:45;8.30;99.90
47516;DHT22;33249;51.990;5.840;2023-11-21T08:38:12;8.40;99.90
47516;DHT22;33249;51.990;5.840;2023-11-21T08:40:38;8.40;99.90
47516;DHT22;33249;51.990;5.840;2023-11-21T08:43:04;8.40;99.90
47516;DHT22;33249;51.990;5.840;2023-11-21T08:45:31;8.50;99.90
47516;DHT22;33249;51.990;5.840;2023-11-21T08:47:58;8.40;99.90
47516;DHT22;33249;51.990;5.840;2023-11-21T08:50:24;8.50;99.90
47516;DHT22;33249;51.990;5.840;2023-11-21T08:52:50;8.50;99.90
47516;DHT22;33249;51.990;5.840;2023-11-21T08:55:17;8.50;99.90
47516;DHT22;33249;51.990;5.840;2023-11-21T08:57:44;8.50;99.90
47516;DHT22;33249;51.990;5.840;2023-11-21T09:00:11;8.60;99.90
47516;DHT22;33249;51.990;5.840;2023-11-21T09:02:39;8.60;99.90
47516;DHT22;33249;51.990;5.840;2023-11-21T09:05:08;8.60;99.90
47516;DHT22;33249;51.990;5.840;2023-11-21T09:07:39;8.70;99.90
47516;DHT22;33249;51.990;5.840;2023-11-21T09:10:07;8.60;99.90
47516;DHT22;33249;51.990;5.840;2023-11-21T09:12:34;8.70;99.90
47516;DHT22;33249;51.990;5.840;2023-11-21T09:15:04;8.60;99.90
47516;DHT22;33249;51.990;5.840;2023-11-21T09:17:32;8.70;99.90
47516;DHT22;33249;51.990;5.840;2023-11-21T09:19:58;8.70;99.90
47516;DHT22;33249;51.990;5.840;2023-11-21T09:22:24;8.70;99.90
47516;DHT22;33249;51.990;5.840;2023-11-21T09:24:51;8.70;99.90
47516;DHT22;33249;51.990;5.840;2023-11-21T09:27:18;8.70;99.90
47516;DHT22;33249;51.990;5.840;2023-11-21T09:29:44;8.80;99.90
47516;DHT22;33249;51.990;5.840;2023-11-21T09:32:10;8.80;99.90
47516;DHT22;33249;51.990;5.840;2023-11-21T09:34:40;8.80;99.90
47516;DHT22;33249;51.990;5.840;2023-11-21T09:37:07;8.80;99.90
47516;DHT22;33249;51.990;5.840;2023-11-21T09:39:34;8.90;99.90
47516;DHT22;33249;51.990;5.840;2023-11-21T09:44:35;9.00;99.90
47516;DHT22;33249;51.990;5.840;2023-11-21T09:47:03;9.10;99.90
47516;DHT22;33249;51.990;5.840;2023-11-21T09:49:30;9.10;99.90
47516;DHT22;33249;51.990;5.840;2023-11-21T09:52:01;9.10;99.90
47516;DHT22;33249;51.990;5.840;2023-11-21T09:54:30;9.10;99.90
47516;DHT22;33249;51.990;5.840;2023-11-21T09:56:59;9.10;99.90
47516;DHT22;33249;51.990;5.840;2023-11-21T09:59:30;9.10;99.90
47516;DHT22;33249;51.990;5.840;2023-11-21T10:01:57;9.20;99.90
47516;DHT22;33249;51.990;5.840;2023-11-21T10:04:25;9.30;99.90
47516;DHT22;33249;51.990;5.840;2023-11-21T10:06:53;9.40;99.90
47516;DHT22;33249;51.990;5.840;2023-11-21T10:09:19;9.60;99.90
47516;DHT22;33249;51.990;5.840;2023-11-21T10:11:47;9.70;99.90
47516;DHT22;33249;51.990;5.840;2023-11-21T10:14:17;9.70;99.90
47516;DHT22;33249;51.990;5.840;2023-11-21T10:16:46;9.70;99.90
47516;DHT22;33249;51.990;5.840;2023-11-21T10:19:13;9.80;99.90
47516;DHT22;33249;51.990;5.840;2023-11-21T10:21:39;9.80;99.90
47516;DHT22;33249;51.990;5.840;2023-11-21T10:24:06;9.70;99.90
47516;DHT22;33249;51.990;5.840;2023-11-21T10:26:32;9.70;99.90
47516;DHT22;33249;51.990;5.840;2023-11-21T10:29:00;9.60;99.90
47516;DHT22;33249;51.990;5.840;2023-11-21T10:31:27;9.60;99.90
47516;DHT22;33249;51.990;5.840;2023-11-21T10:33:53;9.70;99.90
47516;DHT22;33249;51.990;5.840;2023-11-21T10:36:26;9.70;99.90
47516;DHT22;33249;51.990;5.840;2023-11-21T10:38:53;9.70;99.90
47516;DHT22;33249;51.990;5.840;2023-11-21T10:41:20;9.80;99.90
47516;DHT22;33249;51.990;5.840;2023-11-21T10:43:47;9.80;99.90
47516;DHT22;33249;51.990;5.840;2023-11-21T10:46:14;9.80;99.90
47516;DHT22;33249;51.990;5.840;2023-11-21T10:48:43;9.80;99.90
47516;DHT22;33249;51.990;5.840;2023-11-21T10:51:09;9.80;99.90
47516;DHT22;33249;51.990;5.840;2023-11-21T10:53:42;9.80;99.90
47516;DHT22;33249;51.990;5.840;2023-11-21T10:56:09;9.70;99.90
47516;DHT22;33249;51.990;5.840;2023-11-21T10:58:38;9.70;99.90
47516;DHT22;33249;51.990;5.840;2023-11-21T11:01:06;9.80;99.90
47516;DHT22;33249;51.990;5.840;2023-11-21T11:03:35;9.80;99.90
47516;DHT22;33249;51.990;5.840;2023-11-21T11:06:03;9.80;99.90
47516;DHT22;33249;51.990;5.840;2023-11-21T11:08:31;9.80;99.90
47516;DHT22;33249;51.990;5.840;2023-11-21T11:10:57;9.70;99.90
47516;DHT22;33249;51.990;5.840;2023-11-21T11:13:24;9.70;99.90
47516;DHT22;33249;51.990;5.840;2023-11-21T11:16:00;9.70;99.90
47516;DHT22;33249;51.990;5.840;2023-11-21T11:18:28;9.60;99.90
47516;DHT22;33249;51.990;5.840;2023-11-21T11:21:07;9.60;99.90
47516;DHT22;33249;51.990;5.840;2023-11-21T11:26:46;9.60;99.90
47516;DHT22;33249;51.990;5.840;2023-11-21T11:32:25;9.60;99.90
47516;DHT22;33249;51.990;5.840;2023-11-21T11:35:06;9.60;99.90
47516;DHT22;33249;51.990;5.840;2023-11-21T11:37:33;9.60;99.90
47516;DHT22;33249;51.990;5.840;2023-11-21T11:39:59;9.60;99.90
47516;DHT22;33249;51.990;5.840;2023-11-21T11:42:26;9.60;99.90
47516;DHT22;33249;51.990;5.840;2023-11-21T11:44:52;9.60;99.90
47516;DHT22;33249;51.990;5.840;2023-11-21T11:47:28;9.60;99.90
47516;DHT22;33249;51.990;5.840;2023-11-21T11:50:07;9.60;99.90
47516;DHT22;33249;51.990;5.840;2023-11-21T11:52:50;9.70;99.90
47516;DHT22;33249;51.990;5.840;2023-11-21T11:55:19;9.80;99.90
47516;DHT22;33249;51.990;5.840;2023-11-21T11:57:48;9.70;99.90
47516;DHT22;33249;51.990;5.840;2023-11-21T12:02:53;9.70;99.90
47516;DHT22;33249;51.990;5.840;2023-11-21T12:05:21;9.80;99.90
47516;DHT22;33249;51.990;5.840;2023-11-21T12:07:55;10.00;99.90
47516;DHT22;33249;51.990;5.840;2023-11-21T12:10:24;9.90;99.90
47516;DHT22;33249;51.990;5.840;2023-11-21T12:12:56;9.90;99.90
47516;DHT22;33249;51.990;5.840;2023-11-21T12:15:24;9.90;99.90
47516;DHT22;33249;51.990;5.840;2023-11-21T12:17:51;9.80;99.90
47516;DHT22;33249;51.990;5.840;2023-11-21T12:20:24;9.70;99.90
47516;DHT22;33249;51.990;5.840;2023-11-21T12:23:00;9.70;99.90
47516;DHT22;33249;51.990;5.840;2023-11-21T12:25:28;9.70;99.90
47516;DHT22;33249;51.990;5.840;2023-11-21T12:28:02;9.70;99.90
47516;DHT22;33249;51.990;5.840;2023-11-21T12:30:30;9.70;99.90
47516;DHT22;33249;51.990;5.840;2023-11-21T12:32:58;9.70;99.90
47516;DHT22;33249;51.990;5.840;2023-11-21T12:35:26;9.60;99.90
47516;DHT22;33249;51.990;5.840;2023-11-21T12:37:54;9.60;99.90
47516;DHT22;33249;51.990;5.840;2023-11-21T12:40:21;9.60;99.90
47516;DHT22;33249;51.990;5.840;2023-11-21T12:42:51;9.60;99.90
47516;DHT22;33249;51.990;5.840;2023-11-21T12:45:23;9.60;99.90
47516;DHT22;33249;51.990;5.840;2023-11-21T12:47:59;9.60;99.90
47516;DHT22;33249;51.990;5.840;2023-11-21T12:50:27;9.60;99.90
47516;DHT22;33249;51.990;5.840;2023-11-21T12:55:32;9.60;99.90
47516;DHT22;33249;51.990;5.840;2023-11-21T12:58:02;9.70;99.90
47516;DHT22;33249;51.990;5.840;2023-11-21T13:00:36;9.70;99.90
47516;DHT22;33249;51.990;5.840;2023-11-21T13:03:05;9.60;99.90
47516;DHT22;33249;51.990;5.840;2023-11-21T13:05:37;9.60;99.90
47516;DHT22;33249;51.990;5.840;2023-11-21T13:08:14;9.60;99.90
47516;DHT22;33249;51.990;5.840;2023-11-21T13:10:46;9.60;99.90
47516;DHT22;33249;51.990;5.840;2023-11-21T13:13:13;9.60;99.90
47516;DHT22;33249;51.990;5.840;2023-11-21T13:15:54;9.50;99.90
47516;DHT22;33249;51.990;5.840;2023-11-21T13:18:24;9.50;99.90
47516;DHT22;33249;51.990;5.840;2023-11-21T13:20:53;9.50;99.90
47516;DHT22;33249;51.990;5.840;2023-11-21T13:23:20;9.50;99.90
47516;DHT22;33249;51.990;5.840;2023-11-21T13:25:47;9.50;99.90
47516;DHT22;33249;51.990;5.840;2023-11-21T13:28:14;9.50;99.90
47516;DHT22;33249;51.990;5.840;2023-11-21T13:30:41;9.60;99.90
47516;DHT22;33249;51.990;5.840;2023-11-21T13:33:08;9.70;99.90
47516;DHT22;33249;51.990;5.840;2023-11-21T13:35:37;9.70;99.90
47516;DHT22;33249;51.990;5.840;2023-11-21T13:38:09;9.70;99.90
47516;DHT22;33249;51.990;5.840;2023-11-21T13:40:37;9.70;99.90
47516;DHT22;33249;51.990;5.840;2023-11-21T13:43:10;9.70;99.90
47516;DHT22;33249;51.990;5.840;2023-11-21T13:45:37;9.80;99.90
47516;DHT22;33249;51.990;5.840;2023-11-21T13:48:06;9.80;99.90
47516;DHT22;33249;51.990;5.840;2023-11-21T13:50:36;9.90;99.90
47516;DHT22;33249;51.990;5.840;2023-11-21T13:53:03;9.90;99.90
47516;DHT22;33249;51.990;5.840;2023-11-21T13:55:52;9.80;99.90
47516;DHT22;33249;51.990;5.840;2023-11-21T13:58:24;9.80;99.90
47516;DHT22;33249;51.990;5.840;2023-11-21T14:01:13;9.70;99.90
47516;DHT22;33249;51.990;5.840;2023-11-21T14:04:05;9.70;99.90
47516;DHT22;33249;51.990;5.840;2023-11-21T14:06:39;9.70;99.90
47516;DHT22;33249;51.990;5.840;2023-11-21T14:09:21;9.50;99.90
47516;DHT22;33249;51.990;5.840;2023-11-21T14:11:55;9.40;99.90
47516;DHT22;33249;51.990;5.840;2023-11-21T14:14:27;9.40;99.90
47516;DHT22;33249;51.990;5.840;2023-11-21T14:16:56;9.40;99.90
47516;DHT22;33249;51.990;5.840;2023-11-21T14:19:24;9.30;99.90
47516;DHT22;33249;51.990;5.840;2023-11-21T14:21:58;9.20;99.90
47516;DHT22;33249;51.990;5.840;2023-11-21T14:24:25;9.20;99.90
47516;DHT22;33249;51.990;5.840;2023-11-21T14:26:51;9.10;99.90
47516;DHT22;33249;51.990;5.840;2023-11-21T14:29:18;9.10;99.90
47516;DHT22;33249;51.990;5.840;2023-11-21T14:31:49;9.00;99.90
47516;DHT22;33249;51.990;5.840;2023-11-21T14:34:23;9.10;99.90
47516;DHT22;33249;51.990;5.840;2023-11-21T14:36:52;9.00;99.90
47516;DHT22;33249;51.990;5.840;2023-11-21T14:39:19;9.00;99.90
47516;DHT22;33249;51.990;5.840;2023-11-21T14:41:55;9.00;99.90
47516;DHT22;33249;51.990;5.840;2023-11-21T14:44:25;9.00;99.90
47516;DHT22;33249;51.990;5.840;2023-11-21T14:46:54;9.00;99.90
47516;DHT22;33249;51.990;5.840;2023-11-21T14:49:22;9.00;99.90
47516;DHT22;33249;51.990;5.840;2023-11-21T14:51:52;9.00;99.90
47516;DHT22;33249;51.990;5.840;2023-11-21T14:54:28;8.90;99.90
47516;DHT22;33249;51.990;5.840;2023-11-21T14:57:09;8.90;99.90
47516;DHT22;33249;51.990;5.840;2023-11-21T14:59:42;8.80;99.90
47516;DHT22;33249;51.990;5.840;2023-11-21T15:02:10;8.80;99.90
47516;DHT22;33249;51.990;5.840;2023-11-21T15:04:44;8.80;99.90
47516;DHT22;33249;51.990;5.840;2023-11-21T15:07:10;8.70;99.90
47516;DHT22;33249;51.990;5.840;2023-11-21T15:09:40;8.70;99.90
47516;DHT22;33249;51.990;5.840;2023-11-21T15:12:11;8.70;99.90
47516;DHT22;33249;51.990;5.840;2023-11-21T15:17:07;8.70;99.90
47516;DHT22;33249;51.990;5.840;2023-11-21T15:19:33;8.50;99.90
47516;DHT22;33249;51.990;5.840;2023-11-21T15:22:02;8.40;99.90
47516;DHT22;33249;51.990;5.840;2023-11-21T15:24:28;8.40;99.90
47516;DHT22;33249;51.990;5.840;2023-11-21T15:26:54;8.30;99.90
47516;DHT22;33249;51.990;5.840;2023-11-21T15:29:21;8.30;99.90
47516;DHT22;33249;51.990;5.840;2023-11-21T15:31:48;8.30;99.90
47516;DHT22;33249;51.990;5.840;2023-11-21T15:34:15;8.30;99.90
47516;DHT22;33249;51.990;5.840;2023-11-21T15:36:42;8.30;99.90
47516;DHT22;33249;51.990;5.840;2023-11-21T15:39:08;8.30;99.90
47516;DHT22;33249;51.990;5.840;2023-11-21T15:41:39;8.20;99.90
47516;DHT22;33249;51.990;5.840;2023-11-21T15:44:07;8.10;99.90
47516;DHT22;33249;51.990;5.840;2023-11-21T15:46:37;8.00;99.90
47516;DHT22;33249;51.990;5.840;2023-11-21T15:49:05;8.00;99.90
47516;DHT22;33249;51.990;5.840;2023-11-21T15:51:44;8.00;99.90
47516;DHT22;33249;51.990;5.840;2023-11-21T15:54:13;8.00;99.90
47516;DHT22;33249;51.990;5.840;2023-11-21T15:56:39;7.90;99.90
47516;DHT22;33249;51.990;5.840;2023-11-21T15:59:05;7.90;99.90
47516;DHT22;33249;51.990;5.840;2023-11-21T16:01:31;7.90;99.90
47516;DHT22;33249;51.990;5.840;2023-11-21T16:03:57;7.80;99.90
47516;DHT22;33249;51.990;5.840;2023-11-21T16:06:27;7.70;99.90